createdAt,value
2022-08-19T00:01:30.285Z,63.71
2022-08-19T00:03:58.813Z,63.35
2022-08-19T00:06:26.548Z,63.53
2022-08-19T00:08:54.228Z,63.86
2022-08-19T00:11:26.058Z,63.51
2022-08-19T00:13:54.370Z,63.77
2022-08-19T00:16:26.786Z,63.52
2022-08-19T00:18:56.085Z,64.06
2022-08-19T00:21:24.245Z,64.29
2022-08-19T00:23:52.316Z,64.22
2022-08-19T00:26:20.039Z,64.28
2022-08-19T00:28:48.169Z,64.51
2022-08-19T00:31:17.212Z,64.96
2022-08-19T00:33:46.278Z,64.95
2022-08-19T00:36:14.382Z,65.00
2022-08-19T00:38:43.816Z,65.18
2022-08-19T00:41:12.004Z,65.22
2022-08-19T00:43:41.294Z,65.05
2022-08-19T00:46:09.344Z,65.31
2022-08-19T00:48:38.019Z,64.86
2022-08-19T00:51:07.959Z,65.13
2022-08-19T00:53:35.985Z,65.41
2022-08-19T00:56:07.122Z,65.26
2022-08-19T00:58:36.197Z,65.19
2022-08-19T01:01:05.273Z,65.41
2022-08-19T01:03:56.903Z,65.86
2022-08-19T01:06:22.126Z,65.80
2022-08-19T01:08:50.159Z,65.90
2022-08-19T01:11:18.447Z,66.36
2022-08-19T01:13:49.877Z,65.87
2022-08-19T01:16:20.603Z,66.18
2022-08-19T01:18:48.876Z,66.44
2022-08-19T01:21:23.838Z,66.32
2022-08-19T01:23:52.850Z,66.67
2022-08-19T01:26:23.676Z,67.30
2022-08-19T01:28:54.709Z,67.02
2022-08-19T01:31:32.766Z,67.51
2022-08-19T01:34:01.488Z,67.13
2022-08-19T01:36:32.441Z,67.40
2022-08-19T01:39:02.539Z,67.50
2022-08-19T01:41:30.156Z,66.90
2022-08-19T01:44:13.905Z,66.70
2022-08-19T01:46:46.868Z,66.88
2022-08-19T01:49:14.479Z,66.84
2022-08-19T01:51:42.088Z,66.45
2022-08-19T01:54:13.415Z,66.08
2022-08-19T01:56:41.123Z,66.75
2022-08-19T01:59:14.178Z,66.72
2022-08-19T02:01:42.662Z,67.31
2022-08-19T02:04:10.298Z,67.95
2022-08-19T02:06:38.230Z,68.20
2022-08-19T02:09:07.264Z,68.85
2022-08-19T02:11:38.420Z,69.24
2022-08-19T02:14:09.467Z,69.53
2022-08-19T02:16:38.247Z,69.59
2022-08-19T02:19:06.591Z,69.97
2022-08-19T02:21:34.492Z,70.93
2022-08-19T02:24:02.368Z,70.71
2022-08-19T02:26:30.430Z,71.39
2022-08-19T02:28:59.507Z,72.65
2022-08-19T02:31:28.837Z,72.25
2022-08-19T02:33:57.027Z,72.63
2022-08-19T02:36:26.245Z,72.64
2022-08-19T02:38:55.001Z,72.93
2022-08-19T02:41:26.896Z,72.69
2022-08-19T02:44:26.524Z,72.32
2022-08-19T02:46:45.648Z,72.27
2022-08-19T02:49:13.349Z,72.45
2022-08-19T02:51:44.493Z,71.97
2022-08-19T02:54:14.390Z,72.57
2022-08-19T02:56:43.489Z,72.22
2022-08-19T02:59:11.877Z,72.83
2022-08-19T03:01:41.556Z,73.18
2022-08-19T03:04:15.149Z,73.14
2022-08-19T03:06:44.551Z,73.01
2022-08-19T03:09:13.108Z,73.77
2022-08-19T03:11:41.439Z,75.18
2022-08-19T03:14:10.876Z,76.24
2022-08-19T03:16:44.278Z,76.28
2022-08-19T03:19:13.805Z,77.63
2022-08-19T03:21:41.421Z,76.36
2022-08-19T03:24:10.812Z,76.15
2022-08-19T03:26:41.439Z,76.44
2022-08-19T03:29:11.739Z,76.34
2022-08-19T03:31:52.565Z,76.55
2022-08-19T03:34:26.980Z,77.22
2022-08-19T03:36:55.886Z,76.95
2022-08-19T03:39:24.800Z,76.97
2022-08-19T03:42:32.734Z,76.86
2022-08-19T03:44:46.551Z,75.89
2022-08-19T03:47:16.962Z,76.25
2022-08-19T03:49:46.597Z,75.76
2022-08-19T03:52:15.053Z,76.02
2022-08-19T03:54:42.893Z,75.78
2022-08-19T03:57:11.297Z,75.98
2022-08-19T03:59:39.603Z,76.08
2022-08-19T04:02:10.666Z,77.24
2022-08-19T04:04:39.289Z,79.25
2022-08-19T04:07:09.235Z,78.22
2022-08-19T04:09:37.565Z,78.04
2022-08-19T04:12:07.173Z,77.50
2022-08-19T04:14:36.095Z,77.87
2022-08-19T04:17:05.493Z,79.28
2022-08-19T04:19:33.830Z,80.39
2022-08-19T04:22:01.577Z,80.86
2022-08-19T04:24:30.522Z,79.68
2022-08-19T04:26:59.099Z,79.48
2022-08-19T04:29:27.852Z,80.66
2022-08-19T04:31:57.253Z,80.74
2022-08-19T04:34:27.525Z,80.21
2022-08-19T04:36:57.024Z,79.71
2022-08-19T04:39:47.001Z,78.61
2022-08-19T04:42:33.595Z,78.68
2022-08-19T04:45:01.663Z,78.61
2022-08-19T04:47:51.409Z,78.60
2022-08-19T04:50:17.557Z,79.77
2022-08-19T04:52:46.777Z,80.11
2022-08-19T04:55:15.389Z,79.15
2022-08-19T04:57:44.324Z,78.62
2022-08-19T05:00:13.173Z,77.79
2022-08-19T05:02:41.401Z,78.83
2022-08-19T05:05:09.848Z,78.63
2022-08-19T05:07:39.043Z,79.24
2022-08-19T05:10:08.202Z,79.06
2022-08-19T05:12:35.896Z,80.28
2022-08-19T05:15:06.941Z,80.59
2022-08-19T05:17:38.244Z,80.18
2022-08-19T05:20:26.608Z,80.31
2022-08-19T05:22:54.470Z,80.37
2022-08-19T05:25:24.270Z,80.37
2022-08-19T05:27:51.907Z,79.79
2022-08-19T05:30:33.368Z,78.64
2022-08-19T05:33:10.874Z,78.64
2022-08-19T05:35:38.940Z,77.53
2022-08-19T05:38:08.080Z,78.33
2022-08-19T05:40:36.916Z,78.44
2022-08-19T05:43:05.396Z,79.09
2022-08-19T05:45:34.944Z,78.71
2022-08-19T05:48:02.563Z,78.83
2022-08-19T05:50:30.857Z,78.72
2022-08-19T05:52:58.687Z,78.92
2022-08-19T05:55:26.265Z,78.83
2022-08-19T05:57:53.903Z,78.64
2022-08-19T06:00:24.690Z,78.86
2022-08-19T06:02:55.635Z,78.70
2022-08-19T06:05:23.413Z,78.74
2022-08-19T06:07:51.008Z,78.08
2022-08-19T06:10:18.721Z,77.65
2022-08-19T06:12:46.336Z,76.89
2022-08-19T06:15:15.814Z,76.42
2022-08-19T06:17:45.221Z,74.32
2022-08-19T06:20:20.303Z,74.52
2022-08-19T06:22:57.432Z,75.11
2022-08-19T06:25:28.869Z,74.19
2022-08-19T06:28:14.663Z,74.47
2022-08-19T06:30:43.092Z,73.30
2022-08-19T06:33:10.671Z,73.13
2022-08-19T06:35:42.488Z,71.16
2022-08-19T06:38:10.329Z,71.20
2022-08-19T06:40:38.655Z,70.04
2022-08-19T06:43:08.623Z,70.70
2022-08-19T06:45:39.615Z,71.48
2022-08-19T06:48:08.272Z,71.36
2022-08-19T06:50:39.323Z,71.43
2022-08-19T06:53:08.740Z,69.03
2022-08-19T06:55:36.417Z,69.59
2022-08-19T06:58:04.991Z,70.59
2022-08-19T07:00:34.646Z,69.79
2022-08-19T07:03:06.084Z,69.19
2022-08-19T07:05:40.132Z,67.78
2022-08-19T07:08:14.365Z,65.82
2022-08-19T07:10:45.712Z,66.48
2022-08-19T07:13:13.421Z,67.87
2022-08-19T07:15:41.120Z,69.18
2022-08-19T07:18:11.620Z,68.97
2022-08-19T07:20:40.030Z,69.94
2022-08-19T07:23:09.532Z,68.83
2022-08-19T07:25:40.440Z,68.79
2022-08-19T07:28:22.422Z,69.24
2022-08-19T07:30:52.890Z,67.89
2022-08-19T07:33:20.668Z,66.38
2022-08-19T07:35:48.268Z,65.54
2022-08-19T07:38:17.074Z,65.54
2022-08-19T07:40:47.098Z,64.70
2022-08-19T07:43:17.068Z,64.57
2022-08-19T07:45:47.848Z,64.32
2022-08-19T07:48:15.812Z,63.78
2022-08-19T07:50:43.444Z,62.52
2022-08-19T07:53:12.711Z,61.63
2022-08-19T07:55:43.561Z,62.83
2022-08-19T07:58:16.731Z,61.86
2022-08-19T08:00:45.074Z,62.19
2022-08-19T08:03:13.744Z,62.53
2022-08-19T08:05:59.423Z,61.33
2022-08-19T08:08:48.177Z,61.15
2022-08-19T08:11:19.994Z,60.80
2022-08-19T08:14:00.945Z,59.97
2022-08-19T08:16:33.255Z,60.52
2022-08-19T08:19:02.565Z,60.15
2022-08-19T08:21:35.557Z,60.52
2022-08-19T08:24:03.294Z,60.22
2022-08-19T08:26:30.896Z,58.64
2022-08-19T08:29:12.302Z,58.41
2022-08-19T08:31:41.811Z,59.91
2022-08-19T08:34:10.093Z,59.65
2022-08-19T08:36:42.520Z,59.58
2022-08-19T08:39:10.301Z,59.06
2022-08-19T08:41:47.397Z,57.91
2022-08-19T08:44:22.098Z,58.04
2022-08-19T08:46:53.599Z,57.46
2022-08-19T08:49:32.373Z,56.95
2022-08-19T08:52:05.707Z,56.84
2022-08-19T08:54:35.533Z,57.32
2022-08-19T08:57:06.166Z,55.87
2022-08-19T08:59:38.910Z,56.22
2022-08-19T09:02:06.770Z,55.52
2022-08-19T09:04:45.333Z,53.83
2022-08-19T09:07:34.683Z,53.08
2022-08-19T09:10:10.067Z,53.58
2022-08-19T09:12:49.843Z,52.47
2022-08-19T09:15:29.938Z,52.68
2022-08-19T09:18:04.273Z,51.82
2022-08-19T09:20:35.111Z,51.20
2022-08-19T09:23:02.899Z,51.08
2022-08-19T09:25:31.681Z,50.94
2022-08-19T09:28:05.619Z,51.82
2022-08-19T09:30:43.929Z,51.93
2022-08-19T09:33:11.573Z,51.46
2022-08-19T09:35:50.149Z,51.85
2022-08-19T09:38:21.154Z,52.67
2022-08-19T09:40:48.910Z,51.48
2022-08-19T09:43:33.640Z,50.71
2022-08-19T09:46:03.702Z,51.12
2022-08-19T09:48:31.262Z,51.07
2022-08-19T09:51:05.190Z,51.19
2022-08-19T09:53:32.841Z,51.27
2022-08-19T09:56:04.216Z,51.35
2022-08-19T09:58:32.065Z,50.45
2022-08-19T10:01:02.287Z,50.47
2022-08-19T10:03:32.544Z,50.08
2022-08-19T10:06:01.819Z,50.42
2022-08-19T10:08:32.257Z,51.25
2022-08-19T10:11:00.105Z,50.17
2022-08-19T10:13:49.273Z,49.70
2022-08-19T10:16:22.407Z,48.71
2022-08-19T10:18:58.716Z,49.46
2022-08-19T10:21:29.256Z,49.32
2022-08-19T10:24:04.772Z,49.19
2022-08-19T10:26:34.913Z,48.65
2022-08-19T10:29:02.698Z,48.32
2022-08-19T10:31:58.828Z,47.51
2022-08-19T10:34:28.044Z,47.90
2022-08-19T10:37:00.947Z,46.64
2022-08-19T10:39:30.541Z,46.12
2022-08-19T10:41:58.654Z,46.95
2022-08-19T10:44:32.291Z,46.87
2022-08-19T10:47:00.966Z,46.00
2022-08-19T10:49:30.104Z,46.40
2022-08-19T10:52:18.058Z,47.15
2022-08-19T10:55:08.282Z,44.79
2022-08-19T11:00:26.301Z,44.59
2022-08-19T11:02:53.928Z,43.58
2022-08-19T11:05:24.193Z,42.49
2022-08-19T11:07:52.827Z,41.81
2022-08-19T11:10:22.060Z,42.45
2022-08-19T11:12:51.557Z,43.28
2022-08-19T11:15:19.297Z,43.93
2022-08-19T11:17:46.915Z,43.54
2022-08-19T11:20:16.809Z,42.51
2022-08-19T11:22:45.771Z,40.85
2022-08-19T11:25:15.526Z,40.48
2022-08-19T11:27:44.440Z,40.88
2022-08-19T11:30:14.702Z,41.11
2022-08-19T11:32:48.554Z,41.44
2022-08-19T11:35:17.360Z,40.24
2022-08-19T11:37:46.289Z,40.38
2022-08-19T11:40:14.018Z,39.84
2022-08-19T11:42:57.042Z,40.37
2022-08-19T11:45:25.094Z,40.18
2022-08-19T11:47:52.902Z,38.90
2022-08-19T11:50:20.933Z,38.80
2022-08-19T11:52:50.573Z,39.59
2022-08-19T11:55:18.381Z,38.69
2022-08-19T11:57:46.255Z,37.66
2022-08-19T12:00:16.234Z,38.42
2022-08-19T12:02:44.250Z,38.49
2022-08-19T12:05:13.154Z,38.14
2022-08-19T12:07:41.712Z,36.98
2022-08-19T12:10:11.570Z,37.40
2022-08-19T12:12:41.286Z,38.29
2022-08-19T12:15:11.837Z,39.20
2022-08-19T12:17:40.421Z,39.59
2022-08-19T12:20:09.753Z,39.71
2022-08-19T12:22:37.712Z,40.50
2022-08-19T12:25:07.459Z,41.29
2022-08-19T12:27:40.663Z,41.88
2022-08-19T12:30:14.129Z,42.12
2022-08-19T12:32:41.758Z,42.91
2022-08-19T12:35:12.309Z,42.50
2022-08-19T12:37:45.269Z,42.64
2022-08-19T12:40:24.265Z,42.78
2022-08-19T12:42:56.177Z,43.05
2022-08-19T12:45:23.774Z,42.99
2022-08-19T12:47:54.813Z,43.28
2022-08-19T12:50:23.216Z,43.75
2022-08-19T12:52:50.823Z,44.45
2022-08-19T12:55:19.522Z,44.21
2022-08-19T12:57:48.268Z,44.65
2022-08-19T13:00:21.915Z,44.56
2022-08-19T13:02:51.573Z,44.03
2022-08-19T13:05:23.473Z,43.61
2022-08-19T13:07:53.235Z,43.65
2022-08-19T13:10:22.572Z,43.86
2022-08-19T13:12:52.531Z,43.05
2022-08-19T13:15:24.132Z,43.58
2022-08-19T13:17:54.835Z,42.33
2022-08-19T13:20:24.016Z,41.46
2022-08-19T13:22:52.398Z,40.47
2022-08-19T13:25:20.761Z,38.78
2022-08-19T13:27:50.122Z,37.66
2022-08-19T13:30:36.399Z,38.90
2022-08-19T13:33:12.580Z,39.01
2022-08-19T13:35:40.929Z,39.18
2022-08-19T13:38:11.937Z,39.19
2022-08-19T13:40:41.159Z,38.48
2022-08-19T13:43:22.356Z,38.96
2022-08-19T13:45:53.476Z,39.19
2022-08-19T13:48:22.757Z,39.33
2022-08-19T13:50:50.494Z,39.47
2022-08-19T13:53:18.821Z,39.62
2022-08-19T13:55:47.429Z,40.09
2022-08-19T13:58:15.520Z,39.53
2022-08-19T14:00:47.281Z,40.29
2022-08-19T14:03:15.133Z,39.75
2022-08-19T14:05:44.132Z,38.68
2022-08-19T14:08:15.001Z,37.24
2022-08-19T14:10:44.973Z,36.88
2022-08-19T14:13:16.648Z,37.03
2022-08-19T14:15:44.241Z,35.28
2022-08-19T14:18:12.200Z,34.84
2022-08-19T14:20:39.915Z,35.16
2022-08-19T14:23:08.854Z,35.59
2022-08-19T14:25:36.482Z,36.03
2022-08-19T14:28:04.502Z,35.70
2022-08-19T14:30:35.716Z,35.63
2022-08-19T14:33:03.932Z,35.32
2022-08-19T14:35:35.501Z,35.75
2022-08-19T14:38:04.324Z,35.86
2022-08-19T14:40:33.912Z,35.73
2022-08-19T14:43:05.048Z,36.17
2022-08-19T14:45:34.221Z,36.20
2022-08-19T14:48:01.961Z,35.02
2022-08-19T14:50:29.971Z,34.51
2022-08-19T14:53:05.307Z,32.95
2022-08-19T14:55:38.393Z,32.93
2022-08-19T14:58:08.183Z,32.20
2022-08-19T15:00:37.105Z,32.35
2022-08-19T15:03:05.058Z,33.06
2022-08-19T15:05:32.874Z,32.71
2022-08-19T15:08:05.222Z,32.87
2022-08-19T15:10:32.852Z,33.35
2022-08-19T15:13:01.798Z,33.95
2022-08-19T15:15:29.412Z,33.32
2022-08-19T15:18:02.975Z,33.11
2022-08-19T15:20:31.585Z,33.73
2022-08-19T15:23:00.505Z,33.06
2022-08-19T15:25:29.281Z,33.49
2022-08-19T15:27:57.214Z,34.92
2022-08-19T15:30:29.053Z,35.68
2022-08-19T15:32:57.251Z,35.14
2022-08-19T15:35:26.130Z,34.88
2022-08-19T15:37:55.240Z,35.55
2022-08-19T15:40:25.156Z,35.51
2022-08-19T15:42:54.008Z,35.57
2022-08-19T15:45:23.048Z,36.18
2022-08-19T15:47:52.027Z,36.20
2022-08-19T15:50:22.048Z,35.83
2022-08-19T15:52:53.136Z,37.44
2022-08-19T15:55:33.736Z,38.04
2022-08-19T15:58:27.957Z,37.84
2022-08-19T16:01:15.957Z,37.73
2022-08-19T16:04:02.496Z,38.32
2022-08-19T16:06:32.601Z,37.97
2022-08-19T16:09:02.768Z,37.58
2022-08-19T16:11:39.168Z,37.90
2022-08-19T16:14:09.527Z,37.79
2022-08-19T16:16:38.312Z,38.17
2022-08-19T16:19:11.685Z,37.10
2022-08-19T16:21:41.635Z,37.06
2022-08-19T16:24:11.936Z,37.78
2022-08-19T16:26:40.163Z,38.05
2022-08-19T16:29:12.018Z,38.01
2022-08-19T16:31:42.099Z,38.66
2022-08-19T16:34:11.789Z,38.54
2022-08-19T16:36:42.135Z,38.42
2022-08-19T16:39:11.493Z,38.95
2022-08-19T16:41:40.464Z,37.44
2022-08-19T16:44:09.780Z,36.56
2022-08-19T16:46:39.687Z,36.53
2022-08-19T16:49:07.937Z,35.67
2022-08-19T16:51:37.332Z,36.09
2022-08-19T16:54:07.058Z,35.42
2022-08-19T16:56:35.003Z,34.95
2022-08-19T16:59:02.942Z,33.62
2022-08-19T17:01:31.064Z,33.29
2022-08-19T17:03:58.936Z,33.69
2022-08-19T17:06:30.668Z,34.35
2022-08-19T17:09:01.849Z,34.69
2022-08-19T17:11:31.497Z,34.94
2022-08-19T17:13:59.154Z,36.47
2022-08-19T17:16:30.244Z,37.24
2022-08-19T17:19:00.720Z,37.34
2022-08-19T17:21:29.794Z,38.36
2022-08-19T17:23:59.890Z,41.42
2022-08-19T17:26:28.523Z,40.34
2022-08-19T17:28:57.668Z,41.96
2022-08-19T17:31:27.368Z,41.96
2022-08-19T17:33:56.071Z,42.04
2022-08-19T17:36:26.261Z,42.38
2022-08-19T17:38:58.055Z,42.23
2022-08-19T17:41:30.356Z,42.68
2022-08-19T17:43:58.623Z,44.22
2022-08-19T17:46:26.401Z,44.87
2022-08-19T17:48:57.418Z,45.65
2022-08-19T17:51:40.327Z,45.99
2022-08-19T17:54:10.687Z,45.69
2022-08-19T17:56:39.706Z,45.29
2022-08-19T17:59:09.097Z,46.76
2022-08-19T18:01:53.516Z,46.88
2022-08-19T18:04:24.654Z,49.65
2022-08-19T18:06:54.374Z,52.88
2022-08-19T18:09:25.125Z,53.22
2022-08-19T18:11:56.591Z,54.38
2022-08-19T18:14:33.282Z,56.20
2022-08-19T18:17:05.353Z,58.06
2022-08-19T18:19:41.571Z,57.97
2022-08-19T18:22:12.084Z,61.23
2022-08-19T18:24:40.419Z,63.04
2022-08-19T18:27:09.819Z,62.46
2022-08-19T18:29:38.371Z,64.75
2022-08-19T18:32:12.548Z,66.12
2022-08-19T18:34:41.001Z,67.43
2022-08-19T18:37:08.709Z,68.55
2022-08-19T18:39:53.876Z,68.57
2022-08-19T18:42:40.280Z,68.31
2022-08-19T18:45:25.996Z,70.42
2022-08-19T18:48:25.753Z,71.04
2022-08-19T18:50:56.695Z,71.77
2022-08-19T18:53:24.347Z,71.17
2022-08-19T18:55:54.869Z,71.59
2022-08-19T18:58:26.376Z,71.79
2022-08-19T19:00:56.672Z,73.52
2022-08-19T19:03:24.655Z,74.10
2022-08-19T19:05:52.656Z,73.15
2022-08-19T19:08:20.649Z,74.17
2022-08-19T19:10:54.568Z,74.72
2022-08-19T19:13:22.195Z,74.58
2022-08-19T19:15:51.498Z,74.74
2022-08-19T19:18:19.097Z,74.82
2022-08-19T19:20:46.718Z,75.59
2022-08-19T19:23:14.301Z,74.96
2022-08-19T19:25:50.050Z,75.81
2022-08-19T19:28:18.503Z,76.01
2022-08-19T19:30:46.104Z,76.03
2022-08-19T19:33:15.169Z,76.92
2022-08-19T19:35:45.813Z,76.97
2022-08-19T19:38:14.994Z,76.42
2022-08-19T19:40:42.625Z,77.34
2022-08-19T19:43:10.280Z,77.08
2022-08-19T19:45:37.933Z,77.90
2022-08-19T19:48:06.050Z,79.23
2022-08-19T19:50:34.949Z,79.20
2022-08-19T19:53:02.575Z,78.59
2022-08-19T19:55:30.189Z,78.86
2022-08-19T19:57:58.341Z,78.32
2022-08-19T20:00:26.682Z,78.89
2022-08-19T20:02:55.183Z,78.15
2022-08-19T20:05:23.577Z,78.00
2022-08-19T20:08:12.134Z,77.85
2022-08-19T20:10:40.967Z,75.86
2022-08-19T20:13:09.314Z,74.60
2022-08-19T20:15:42.307Z,73.50
2022-08-19T20:18:10.118Z,72.36
2022-08-19T20:20:37.879Z,69.95
2022-08-19T20:23:07.272Z,69.45
2022-08-19T20:25:35.136Z,66.74
2022-08-19T20:28:05.490Z,65.37
2022-08-19T20:30:33.302Z,65.33
2022-08-19T20:33:01.881Z,63.02
2022-08-19T20:35:29.536Z,63.13
2022-08-19T20:37:59.757Z,63.02
2022-08-19T20:40:29.687Z,61.03
2022-08-19T20:42:57.472Z,61.58
2022-08-19T20:45:33.534Z,60.31
2022-08-19T20:48:02.715Z,60.57
2022-08-19T20:50:30.943Z,60.50
2022-08-19T20:52:58.600Z,61.43
2022-08-19T20:55:26.429Z,60.31
2022-08-19T20:57:56.423Z,61.10
2022-08-19T21:00:24.120Z,61.76
2022-08-19T21:02:51.718Z,61.01
2022-08-19T21:05:19.473Z,60.92
2022-08-19T21:07:47.150Z,62.08
2022-08-19T21:10:15.292Z,61.49
2022-08-19T21:12:44.312Z,61.34
2022-08-19T21:15:13.586Z,61.10
2022-08-19T21:17:41.240Z,60.77
2022-08-19T21:20:10.280Z,61.13
2022-08-19T21:22:37.968Z,61.64
2022-08-19T21:25:06.829Z,62.59
2022-08-19T21:27:34.455Z,62.88
2022-08-19T21:30:02.116Z,63.88
2022-08-19T21:32:31.109Z,63.66
2022-08-19T21:34:58.724Z,63.80
2022-08-19T21:37:26.420Z,64.12
2022-08-19T21:39:54.343Z,63.99
2022-08-19T21:42:22.365Z,64.03
2022-08-19T21:44:50.110Z,63.74
2022-08-19T21:47:17.800Z,64.31
2022-08-19T21:49:47.010Z,64.34
2022-08-19T21:52:14.973Z,64.53
2022-08-19T21:54:42.727Z,65.26
2022-08-19T21:57:11.069Z,65.08
2022-08-19T21:59:39.593Z,65.14
2022-08-19T22:02:19.466Z,65.28
2022-08-19T22:04:50.104Z,64.74
2022-08-19T22:07:17.777Z,65.00
2022-08-19T22:09:46.962Z,65.64
2022-08-19T22:12:23.951Z,65.80
2022-08-19T22:14:52.801Z,65.76
2022-08-19T22:17:22.257Z,64.85
2022-08-19T22:19:52.324Z,64.78
2022-08-19T22:22:25.653Z,64.40
2022-08-19T22:24:53.638Z,65.30
2022-08-19T22:27:21.624Z,64.96
2022-08-19T22:29:52.639Z,65.49
2022-08-19T22:32:28.018Z,64.70
2022-08-19T22:35:00.787Z,64.99
2022-08-19T22:37:31.657Z,64.98
2022-08-19T22:40:00.472Z,65.25
2022-08-19T22:42:31.932Z,64.97
2022-08-19T22:45:01.567Z,64.95
2022-08-19T22:47:30.223Z,65.63
2022-08-19T22:50:03.211Z,65.63
2022-08-19T22:52:31.646Z,66.03
2022-08-19T22:55:02.939Z,65.78
2022-08-19T22:57:30.565Z,65.55
2022-08-19T22:59:58.932Z,65.75
2022-08-19T23:02:34.437Z,65.64
2022-08-19T23:05:04.335Z,66.15
2022-08-19T23:07:32.033Z,66.06
2022-08-19T23:10:00.075Z,65.88
2022-08-19T23:12:30.545Z,66.25
2022-08-19T23:15:02.648Z,66.23
2022-08-19T23:17:30.207Z,66.76
2022-08-19T23:19:57.930Z,67.00
2022-08-19T23:22:27.349Z,67.13
2022-08-19T23:24:56.192Z,67.47
2022-08-19T23:27:41.393Z,67.85
2022-08-19T23:30:29.049Z,68.11
2022-08-19T23:33:00.817Z,68.28
2022-08-19T23:35:34.707Z,68.53
2022-08-19T23:38:04.714Z,68.32
2022-08-19T23:40:32.455Z,69.12
2022-08-19T23:43:00.105Z,69.48
2022-08-19T23:45:28.346Z,69.20
2022-08-19T23:48:00.376Z,68.92
2022-08-19T23:50:28.211Z,68.93
2022-08-19T23:52:59.697Z,68.78
2022-08-19T23:55:32.197Z,68.62
2022-08-19T23:58:00.773Z,68.83
